sensor_id;sensor_type;location;lat;lon;timestamp;pressure;altitude;pressure_sealevel;temperature;humidity
55932;BME280;41837;55.700;37.984;2022-11-14T00:00:04;100418.78;;;1.36;79.57
55932;BME280;41837;55.700;37.984;2022-11-14T00:02:50;100422.38;;;1.56;77.99
55932;BME280;41837;55.700;37.984;2022-11-14T00:05:42;100429.22;;;1.51;80.19
55932;BME280;41837;55.700;37.984;2022-11-14T00:08:28;100423.19;;;1.54;79.88
55932;BME280;41837;55.700;37.984;2022-11-14T00:11:13;100417.28;;;1.81;80.37
55932;BME280;41837;55.700;37.984;2022-11-14T00:13:58;100422.41;;;1.68;78.80
55932;BME280;41837;55.700;37.984;2022-11-14T00:16:43;100418.94;;;1.68;78.07
55932;BME280;41837;55.700;37.984;2022-11-14T00:19:28;100424.03;;;1.48;80.96
55932;BME280;41837;55.700;37.984;2022-11-14T00:22:12;100429.19;;;1.49;80.85
55932;BME280;41837;55.700;37.984;2022-11-14T00:24:58;100429.09;;;1.36;82.64
55932;BME280;41837;55.700;37.984;2022-11-14T00:27:43;100426.53;;;1.37;82.00
55932;BME280;41837;55.700;37.984;2022-11-14T00:30:28;100433.31;;;1.20;83.14
55932;BME280;41837;55.700;37.984;2022-11-14T00:33:13;100436.94;;;1.51;84.20
55932;BME280;41837;55.700;37.984;2022-11-14T00:35:58;100436.06;;;1.52;82.69
55932;BME280;41837;55.700;37.984;2022-11-14T00:38:43;100430.81;;;1.34;83.11
55932;BME280;41837;55.700;37.984;2022-11-14T00:41:28;100435.94;;;1.26;82.65
55932;BME280;41837;55.700;37.984;2022-11-14T00:44:16;100440.34;;;1.48;83.02
55932;BME280;41837;55.700;37.984;2022-11-14T00:47:00;100432.50;;;1.28;82.20
55932;BME280;41837;55.700;37.984;2022-11-14T00:49:45;100437.63;;;1.24;82.25
55932;BME280;41837;55.700;37.984;2022-11-14T00:52:30;100454.88;;;1.36;82.29
55932;BME280;41837;55.700;37.984;2022-11-14T00:55:14;100442.84;;;1.35;81.52
55932;BME280;41837;55.700;37.984;2022-11-14T00:57:59;100449.63;;;1.20;82.43
55932;BME280;41837;55.700;37.984;2022-11-14T01:00:44;100453.16;;;1.41;81.74
55932;BME280;41837;55.700;37.984;2022-11-14T01:03:29;100433.38;;;1.32;82.55
55932;BME280;41837;55.700;37.984;2022-11-14T01:06:14;100461.78;;;1.41;81.84
55932;BME280;41837;55.700;37.984;2022-11-14T01:09:00;100459.97;;;1.25;81.03
55932;BME280;41837;55.700;37.984;2022-11-14T01:11:44;100460.00;;;1.36;81.26
55932;BME280;41837;55.700;37.984;2022-11-14T01:14:30;100464.41;;;1.52;80.83
55932;BME280;41837;55.700;37.984;2022-11-14T01:17:14;100451.38;;;1.24;81.36
55932;BME280;41837;55.700;37.984;2022-11-14T01:19:59;100465.16;;;1.29;80.52
55932;BME280;41837;55.700;37.984;2022-11-14T01:22:44;100475.66;;;1.66;81.92
55932;BME280;41837;55.700;37.984;2022-11-14T01:25:32;100472.97;;;1.46;80.44
55932;BME280;41837;55.700;37.984;2022-11-14T01:28:18;100467.03;;;1.58;80.47
55932;BME280;41837;55.700;37.984;2022-11-14T01:31:12;100479.88;;;1.54;78.52
55932;BME280;41837;55.700;37.984;2022-11-14T01:33:58;100482.56;;;1.71;76.41
55932;BME280;41837;55.700;37.984;2022-11-14T01:36:43;100480.72;;;1.48;73.04
55932;BME280;41837;55.700;37.984;2022-11-14T01:39:30;100487.56;;;1.43;71.61
55932;BME280;41837;55.700;37.984;2022-11-14T01:42:14;100496.91;;;1.28;70.88
55932;BME280;41837;55.700;37.984;2022-11-14T01:45:00;100487.50;;;1.37;70.29
55932;BME280;41837;55.700;37.984;2022-11-14T01:47:44;100501.97;;;1.16;68.64
55932;BME280;41837;55.700;37.984;2022-11-14T01:50:30;100491.72;;;1.25;67.80
55932;BME280;41837;55.700;37.984;2022-11-14T01:53:15;100490.78;;;1.13;65.90
55932;BME280;41837;55.700;37.984;2022-11-14T01:56:03;100513.94;;;1.11;66.61
55932;BME280;41837;55.700;37.984;2022-11-14T01:58:57;100511.28;;;0.99;66.22
55932;BME280;41837;55.700;37.984;2022-11-14T02:01:47;100518.22;;;1.09;64.96
55932;BME280;41837;55.700;37.984;2022-11-14T02:04:37;100521.84;;;1.33;64.55
55932;BME280;41837;55.700;37.984;2022-11-14T02:07:26;100511.34;;;1.08;64.99
55932;BME280;41837;55.700;37.984;2022-11-14T02:10:18;100530.22;;;1.04;64.44
55932;BME280;41837;55.700;37.984;2022-11-14T02:13:03;100518.22;;;1.12;64.79
55932;BME280;41837;55.700;37.984;2022-11-14T02:15:49;100506.91;;;0.90;63.97
55932;BME280;41837;55.700;37.984;2022-11-14T02:18:34;100518.22;;;1.07;64.23
55932;BME280;41837;55.700;37.984;2022-11-14T02:21:19;100526.03;;;1.18;65.01
55932;BME280;41837;55.700;37.984;2022-11-14T02:24:09;100525.94;;;1.06;64.30
55932;BME280;41837;55.700;37.984;2022-11-14T02:26:54;100518.13;;;1.00;63.43
55932;BME280;41837;55.700;37.984;2022-11-14T02:29:38;100532.63;;;0.90;64.78
55932;BME280;41837;55.700;37.984;2022-11-14T02:32:23;100537.94;;;1.07;65.02
55932;BME280;41837;55.700;37.984;2022-11-14T02:35:09;100534.50;;;1.06;64.47
55932;BME280;41837;55.700;37.984;2022-11-14T02:37:54;100544.75;;;0.99;64.15
55932;BME280;41837;55.700;37.984;2022-11-14T02:40:39;100542.25;;;1.08;65.05
55932;BME280;41837;55.700;37.984;2022-11-14T02:43:23;100545.50;;;0.85;64.20
55932;BME280;41837;55.700;37.984;2022-11-14T02:46:08;100542.88;;;0.82;62.56
55932;BME280;41837;55.700;37.984;2022-11-14T02:48:54;100543.72;;;0.83;64.17
55932;BME280;41837;55.700;37.984;2022-11-14T02:51:39;100557.47;;;0.85;63.30
55932;BME280;41837;55.700;37.984;2022-11-14T02:54:24;100554.81;;;0.76;63.60
55932;BME280;41837;55.700;37.984;2022-11-14T02:57:09;100562.63;;;0.86;64.04
55932;BME280;41837;55.700;37.984;2022-11-14T02:59:54;100559.38;;;1.03;63.14
55932;BME280;41837;55.700;37.984;2022-11-14T03:02:40;100553.22;;;0.87;62.77
55932;BME280;41837;55.700;37.984;2022-11-14T03:05:25;100554.97;;;0.91;61.99
55932;BME280;41837;55.700;37.984;2022-11-14T03:08:10;100566.16;;;0.96;63.56
55932;BME280;41837;55.700;37.984;2022-11-14T03:10:55;100556.34;;;0.55;64.04
55932;BME280;41837;55.700;37.984;2022-11-14T03:13:40;100554.91;;;0.83;63.65
55932;BME280;41837;55.700;37.984;2022-11-14T03:16:25;100566.19;;;0.98;62.56
55932;BME280;41837;55.700;37.984;2022-11-14T03:19:10;100571.28;;;0.91;62.67
55932;BME280;41837;55.700;37.984;2022-11-14T03:21:55;100570.34;;;0.85;63.19
55932;BME280;41837;55.700;37.984;2022-11-14T03:24:40;100566.88;;;0.80;62.79
55932;BME280;41837;55.700;37.984;2022-11-14T03:27:25;100563.50;;;0.84;62.27
55932;BME280;41837;55.700;37.984;2022-11-14T03:30:10;100583.09;;;0.72;62.06
55932;BME280;41837;55.700;37.984;2022-11-14T03:32:56;100579.56;;;0.63;61.23
55932;BME280;41837;55.700;37.984;2022-11-14T03:35:41;100587.50;;;0.84;62.14
55932;BME280;41837;55.700;37.984;2022-11-14T03:38:27;100573.72;;;0.79;62.37
55932;BME280;41837;55.700;37.984;2022-11-14T03:41:12;100586.59;;;0.79;62.86
55932;BME280;41837;55.700;37.984;2022-11-14T03:43:57;100584.69;;;0.63;63.45
55932;BME280;41837;55.700;37.984;2022-11-14T03:46:42;100572.66;;;0.57;62.41
55932;BME280;41837;55.700;37.984;2022-11-14T03:49:27;100578.63;;;0.56;63.61
55932;BME280;41837;55.700;37.984;2022-11-14T03:52:13;100592.22;;;0.43;62.94
55932;BME280;41837;55.700;37.984;2022-11-14T03:54:58;100595.78;;;0.55;62.16
55932;BME280;41837;55.700;37.984;2022-11-14T03:57:43;100593.25;;;0.59;61.80
55932;BME280;41837;55.700;37.984;2022-11-14T04:00:28;100597.38;;;0.46;61.77
55932;BME280;41837;55.700;37.984;2022-11-14T04:03:13;100607.88;;;0.63;62.02
55932;BME280;41837;55.700;37.984;2022-11-14T04:05:58;100610.25;;;0.46;62.93
55932;BME280;41837;55.700;37.984;2022-11-14T04:08:43;100610.25;;;0.44;62.98
55932;BME280;41837;55.700;37.984;2022-11-14T04:11:28;100597.38;;;0.46;63.49
55932;BME280;41837;55.700;37.984;2022-11-14T04:14:12;100598.19;;;0.42;63.71
55932;BME280;41837;55.700;37.984;2022-11-14T04:16:57;100595.69;;;0.46;63.72
55932;BME280;41837;55.700;37.984;2022-11-14T04:19:43;100599.63;;;0.20;63.51
55932;BME280;41837;55.700;37.984;2022-11-14T04:22:29;100618.88;;;0.49;63.15
55932;BME280;41837;55.700;37.984;2022-11-14T04:25:13;100584.25;;;0.23;63.15
55932;BME280;41837;55.700;37.984;2022-11-14T04:27:58;100605.81;;;0.34;63.64
55932;BME280;41837;55.700;37.984;2022-11-14T04:30:44;100617.06;;;0.42;63.61
55932;BME280;41837;55.700;37.984;2022-11-14T04:33:29;100619.00;;;0.60;64.86
55932;BME280;41837;55.700;37.984;2022-11-14T04:36:15;100618.56;;;0.25;63.67
55932;BME280;41837;55.700;37.984;2022-11-14T04:39:00;100625.97;;;0.03;63.90
55932;BME280;41837;55.700;37.984;2022-11-14T04:41:46;100630.50;;;0.20;65.11
55932;BME280;41837;55.700;37.984;2022-11-14T04:44:30;100628.81;;;0.22;64.12
55932;BME280;41837;55.700;37.984;2022-11-14T04:47:16;100637.00;;;-0.06;64.64
55932;BME280;41837;55.700;37.984;2022-11-14T04:50:04;100649.13;;;0.05;66.09
55932;BME280;41837;55.700;37.984;2022-11-14T04:52:52;100649.94;;;0.01;65.21
55932;BME280;41837;55.700;37.984;2022-11-14T04:55:37;100653.31;;;-0.04;65.54
55932;BME280;41837;55.700;37.984;2022-11-14T04:58:22;100662.69;;;-0.06;64.93
55932;BME280;41837;55.700;37.984;2022-11-14T05:01:08;100657.47;;;-0.13;65.59
55932;BME280;41837;55.700;37.984;2022-11-14T05:03:54;100663.09;;;0.21;65.29
55932;BME280;41837;55.700;37.984;2022-11-14T05:06:39;100674.09;;;0.10;64.30
55932;BME280;41837;55.700;37.984;2022-11-14T05:09:25;100664.53;;;0.03;65.24
55932;BME280;41837;55.700;37.984;2022-11-14T05:12:09;100672.47;;;0.18;65.75
55932;BME280;41837;55.700;37.984;2022-11-14T05:14:54;100677.44;;;0.06;64.76
55932;BME280;41837;55.700;37.984;2022-11-14T05:17:39;100682.16;;;-0.23;65.75
55932;BME280;41837;55.700;37.984;2022-11-14T05:20:24;100681.59;;;-0.02;64.60
55932;BME280;41837;55.700;37.984;2022-11-14T05:23:28;100701.72;;;0.25;66.87
55932;BME280;41837;55.700;37.984;2022-11-14T05:26:16;100699.28;;;-0.22;66.27
55932;BME280;41837;55.700;37.984;2022-11-14T05:29:02;100708.56;;;-0.32;67.04
55932;BME280;41837;55.700;37.984;2022-11-14T05:31:48;100707.19;;;-0.11;67.12
55932;BME280;41837;55.700;37.984;2022-11-14T05:34:33;100709.00;;;0.57;63.64
55932;BME280;41837;55.700;37.984;2022-11-14T05:37:17;100716.28;;;0.89;63.17
55932;BME280;41837;55.700;37.984;2022-11-14T05:40:03;100714.09;;;1.24;60.99
55932;BME280;41837;55.700;37.984;2022-11-14T05:42:48;100713.56;;;1.55;61.26
55932;BME280;41837;55.700;37.984;2022-11-14T05:45:33;100727.84;;;2.23;59.06
55932;BME280;41837;55.700;37.984;2022-11-14T05:48:18;100728.75;;;2.28;57.70
55932;BME280;41837;55.700;37.984;2022-11-14T05:51:04;100735.94;;;2.88;57.91
55932;BME280;41837;55.700;37.984;2022-11-14T05:53:50;100740.78;;;2.31;57.33
55932;BME280;41837;55.700;37.984;2022-11-14T05:56:35;100735.22;;;1.77;57.90
55932;BME280;41837;55.700;37.984;2022-11-14T05:59:20;100755.28;;;2.15;58.11
55932;BME280;41837;55.700;37.984;2022-11-14T06:02:04;100758.75;;;2.18;58.07
55932;BME280;41837;55.700;37.984;2022-11-14T06:04:49;100762.59;;;2.87;57.22
55932;BME280;41837;55.700;37.984;2022-11-14T06:07:34;100750.47;;;2.67;56.79
55932;BME280;41837;55.700;37.984;2022-11-14T06:10:18;100747.88;;;2.64;56.61
55932;BME280;41837;55.700;37.984;2022-11-14T06:13:03;100755.13;;;1.95;56.73
55932;BME280;41837;55.700;37.984;2022-11-14T06:15:48;100768.25;;;2.24;57.67
55932;BME280;41837;55.700;37.984;2022-11-14T06:18:33;100768.75;;;1.78;57.38
55932;BME280;41837;55.700;37.984;2022-11-14T06:21:20;100765.84;;;1.43;57.55
55932;BME280;41837;55.700;37.984;2022-11-14T06:24:05;100770.00;;;2.25;57.43
55932;BME280;41837;55.700;37.984;2022-11-14T06:26:51;100788.88;;;2.18;57.14
55932;BME280;41837;55.700;37.984;2022-11-14T06:29:37;100782.81;;;2.14;56.85
55932;BME280;41837;55.700;37.984;2022-11-14T06:32:21;100780.41;;;2.40;57.28
55932;BME280;41837;55.700;37.984;2022-11-14T06:35:06;100784.00;;;2.61;56.57
55932;BME280;41837;55.700;37.984;2022-11-14T06:37:51;100785.63;;;2.47;56.47
55932;BME280;41837;55.700;37.984;2022-11-14T06:40:35;100793.19;;;2.22;56.26
55932;BME280;41837;55.700;37.984;2022-11-14T06:43:21;100799.78;;;3.15;55.13
55932;BME280;41837;55.700;37.984;2022-11-14T06:46:07;100796.44;;;3.54;54.42
55932;BME280;41837;55.700;37.984;2022-11-14T06:48:52;100812.41;;;2.64;55.60
55932;BME280;41837;55.700;37.984;2022-11-14T06:51:37;100801.22;;;2.62;56.13
55932;BME280;41837;55.700;37.984;2022-11-14T06:54:22;100811.22;;;2.16;56.74
55932;BME280;41837;55.700;37.984;2022-11-14T06:57:07;100810.69;;;2.66;55.22
55932;BME280;41837;55.700;37.984;2022-11-14T06:59:52;100820.00;;;2.44;56.17
55932;BME280;41837;55.700;37.984;2022-11-14T07:02:36;100811.81;;;3.13;54.72
55932;BME280;41837;55.700;37.984;2022-11-14T07:05:21;100821.25;;;3.05;54.91
55932;BME280;41837;55.700;37.984;2022-11-14T07:08:06;100822.16;;;3.13;54.06
55932;BME280;41837;55.700;37.984;2022-11-14T07:10:52;100828.19;;;3.15;54.60
55932;BME280;41837;55.700;37.984;2022-11-14T07:13:37;100824.66;;;2.94;53.85
55932;BME280;41837;55.700;37.984;2022-11-14T07:16:27;100818.66;;;3.05;54.13
55932;BME280;41837;55.700;37.984;2022-11-14T07:19:15;100824.72;;;3.11;53.95
55932;BME280;41837;55.700;37.984;2022-11-14T07:22:00;100829.94;;;3.16;53.93
55932;BME280;41837;55.700;37.984;2022-11-14T07:24:45;100823.47;;;2.48;54.10
55932;BME280;41837;55.700;37.984;2022-11-14T07:27:30;100837.41;;;2.71;53.56
55932;BME280;41837;55.700;37.984;2022-11-14T07:30:15;100839.09;;;2.66;53.50
55932;BME280;41837;55.700;37.984;2022-11-14T07:33:01;100848.09;;;3.34;53.37
55932;BME280;41837;55.700;37.984;2022-11-14T07:35:45;100849.72;;;3.15;52.02
55932;BME280;41837;55.700;37.984;2022-11-14T07:38:31;100850.81;;;3.65;51.95
55932;BME280;41837;55.700;37.984;2022-11-14T07:41:17;100859.91;;;2.89;51.92
55932;BME280;41837;55.700;37.984;2022-11-14T07:44:02;100861.44;;;2.61;53.05
55932;BME280;41837;55.700;37.984;2022-11-14T07:46:47;100870.41;;;3.18;54.19
55932;BME280;41837;55.700;37.984;2022-11-14T07:49:34;100868.63;;;3.08;51.20
55932;BME280;41837;55.700;37.984;2022-11-14T07:52:18;100865.28;;;3.26;52.04
55932;BME280;41837;55.700;37.984;2022-11-14T07:55:04;100872.44;;;4.06;51.69
55932;BME280;41837;55.700;37.984;2022-11-14T07:57:52;100867.09;;;3.41;50.67
55932;BME280;41837;55.700;37.984;2022-11-14T08:00:39;100872.25;;;3.38;52.11
55932;BME280;41837;55.700;37.984;2022-11-14T08:03:24;100855.69;;;3.04;50.97
55932;BME280;41837;55.700;37.984;2022-11-14T08:06:13;100867.22;;;3.84;52.64
55932;BME280;41837;55.700;37.984;2022-11-14T08:08:58;100869.09;;;2.50;51.72
55932;BME280;41837;55.700;37.984;2022-11-14T08:11:43;100871.22;;;3.10;52.09
55932;BME280;41837;55.700;37.984;2022-11-14T08:14:34;100876.56;;;3.45;51.14
55932;BME280;41837;55.700;37.984;2022-11-14T08:17:20;100880.88;;;3.48;50.81
55932;BME280;41837;55.700;37.984;2022-11-14T08:20:07;100879.19;;;3.58;51.57
55932;BME280;41837;55.700;37.984;2022-11-14T08:23:12;100891.97;;;3.17;50.51
55932;BME280;41837;55.700;37.984;2022-11-14T08:25:58;100879.69;;;2.86;51.40
55932;BME280;41837;55.700;37.984;2022-11-14T08:28:43;100880.91;;;3.46;52.84
55932;BME280;41837;55.700;37.984;2022-11-14T08:31:28;100885.00;;;3.07;51.24
55932;BME280;41837;55.700;37.984;2022-11-14T08:34:13;100876.75;;;2.41;51.01
55932;BME280;41837;55.700;37.984;2022-11-14T08:36:58;100881.50;;;2.96;51.63
55932;BME280;41837;55.700;37.984;2022-11-14T08:39:47;100873.25;;;3.83;51.47
55932;BME280;41837;55.700;37.984;2022-11-14T08:42:32;100876.38;;;3.08;50.54
55932;BME280;41837;55.700;37.984;2022-11-14T08:45:16;100898.22;;;3.69;50.72
55932;BME280;41837;55.700;37.984;2022-11-14T08:48:01;100888.25;;;2.82;51.52
55932;BME280;41837;55.700;37.984;2022-11-14T08:50:46;100890.53;;;2.40;52.51
55932;BME280;41837;55.700;37.984;2022-11-14T08:53:31;100888.56;;;2.13;53.01
55932;BME280;41837;55.700;37.984;2022-11-14T08:56:16;100888.59;;;2.14;53.78
55932;BME280;41837;55.700;37.984;2022-11-14T08:59:02;100887.56;;;2.00;53.26
55932;BME280;41837;55.700;37.984;2022-11-14T09:01:47;100893.59;;;2.00;53.27
55932;BME280;41837;55.700;37.984;2022-11-14T09:04:32;100892.94;;;2.21;54.05
55932;BME280;41837;55.700;37.984;2022-11-14T09:07:18;100900.22;;;2.67;54.98
55932;BME280;41837;55.700;37.984;2022-11-14T09:10:04;100893.25;;;2.55;52.97
55932;BME280;41837;55.700;37.984;2022-11-14T09:12:55;100885.50;;;2.57;52.55
55932;BME280;41837;55.700;37.984;2022-11-14T09:15:41;100889.50;;;2.21;53.44
55932;BME280;41837;55.700;37.984;2022-11-14T09:18:26;100881.38;;;1.84;54.75
55932;BME280;41837;55.700;37.984;2022-11-14T09:21:11;100906.19;;;1.73;54.13
55932;BME280;41837;55.700;37.984;2022-11-14T09:23:56;100894.22;;;1.79;55.28
55932;BME280;41837;55.700;37.984;2022-11-14T09:26:41;100894.13;;;1.70;55.05
55932;BME280;41837;55.700;37.984;2022-11-14T09:29:26;100889.16;;;1.87;54.43
55932;BME280;41837;55.700;37.984;2022-11-14T09:32:11;100903.94;;;2.03;55.23
55932;BME280;41837;55.700;37.984;2022-11-14T09:34:56;100885.34;;;2.38;54.61
55932;BME280;41837;55.700;37.984;2022-11-14T09:37:42;100894.13;;;2.57;55.42
55932;BME280;41837;55.700;37.984;2022-11-14T09:40:27;100884.59;;;2.49;55.70
55932;BME280;41837;55.700;37.984;2022-11-14T09:43:53;100894.75;;;2.32;55.73
55932;BME280;41837;55.700;37.984;2022-11-14T09:46:49;100890.06;;;1.92;55.63
55932;BME280;41837;55.700;37.984;2022-11-14T09:49:39;100892.38;;;2.53;54.39
55932;BME280;41837;55.700;37.984;2022-11-14T09:52:42;100901.75;;;2.45;54.42
55932;BME280;41837;55.700;37.984;2022-11-14T09:55:32;100893.84;;;2.27;55.23
55932;BME280;41837;55.700;37.984;2022-11-14T09:58:20;100897.41;;;2.38;54.44
55932;BME280;41837;55.700;37.984;2022-11-14T10:01:31;100892.59;;;1.88;55.63
55932;BME280;41837;55.700;37.984;2022-11-14T10:11:05;100887.09;;;2.38;54.68
55932;BME280;41837;55.700;37.984;2022-11-14T10:17:10;100888.22;;;2.74;54.82
55932;BME280;41837;55.700;37.984;2022-11-14T10:20:23;100887.22;;;2.58;55.69
55932;BME280;41837;55.700;37.984;2022-11-14T10:26:29;100889.16;;;1.87;57.50
55932;BME280;41837;55.700;37.984;2022-11-14T10:35:48;100876.53;;;2.15;56.52
55932;BME280;41837;55.700;37.984;2022-11-14T10:41:25;100879.94;;;2.09;56.88
55932;BME280;41837;55.700;37.984;2022-11-14T10:44:17;100866.72;;;1.81;56.86
55932;BME280;41837;55.700;37.984;2022-11-14T10:47:09;100880.72;;;2.03;57.23
55932;BME280;41837;55.700;37.984;2022-11-14T10:49:59;100884.75;;;1.77;56.79
55932;BME280;41837;55.700;37.984;2022-11-14T10:52:51;100878.06;;;1.96;56.84
55932;BME280;41837;55.700;37.984;2022-11-14T10:55:39;100872.09;;;2.00;56.38
55932;BME280;41837;55.700;37.984;2022-11-14T10:58:23;100875.69;;;2.16;56.48
55932;BME280;41837;55.700;37.984;2022-11-14T11:01:31;100871.88;;;1.81;56.57
55932;BME280;41837;55.700;37.984;2022-11-14T11:04:25;100876.28;;;1.92;57.26
55932;BME280;41837;55.700;37.984;2022-11-14T11:10:21;100880.72;;;2.03;57.00
55932;BME280;41837;55.700;37.984;2022-11-14T11:13:34;100886.63;;;1.92;57.26
55932;BME280;41837;55.700;37.984;2022-11-14T11:16:24;100884.03;;;1.90;57.37
55932;BME280;41837;55.700;37.984;2022-11-14T11:19:24;100877.00;;;1.75;57.59
55932;BME280;41837;55.700;37.984;2022-11-14T11:22:30;100885.50;;;1.70;58.29
55932;BME280;41837;55.700;37.984;2022-11-14T11:25:27;100882.38;;;1.98;57.13
55932;BME280;41837;55.700;37.984;2022-11-14T11:28:14;100879.63;;;1.78;57.74
55932;BME280;41837;55.700;37.984;2022-11-14T11:31:07;100886.53;;;1.82;57.99
55932;BME280;41837;55.700;37.984;2022-11-14T11:33:53;100879.25;;;1.47;58.58
55932;BME280;41837;55.700;37.984;2022-11-14T11:36:46;100885.50;;;1.70;58.01
55932;BME280;41837;55.700;37.984;2022-11-14T11:39:36;100876.75;;;1.55;58.43
55932;BME280;41837;55.700;37.984;2022-11-14T11:45:31;100885.94;;;1.33;58.98
55932;BME280;41837;55.700;37.984;2022-11-14T11:48:18;100888.59;;;1.41;58.95
55932;BME280;41837;55.700;37.984;2022-11-14T11:51:08;100885.13;;;1.37;59.11
55932;BME280;41837;55.700;37.984;2022-11-14T11:54:15;100880.69;;;1.25;59.64
55932;BME280;41837;55.700;37.984;2022-11-14T11:57:02;100883.88;;;1.06;59.68
55932;BME280;41837;55.700;37.984;2022-11-14T11:59:58;100881.25;;;1.04;59.45
55932;BME280;41837;55.700;37.984;2022-11-14T12:02:52;100885.81;;;1.25;59.90
55932;BME280;41837;55.700;37.984;2022-11-14T12:11:46;100880.94;;;0.83;59.41
55932;BME280;41837;55.700;37.984;2022-11-14T12:23:33;100900.59;;;0.78;60.27
55932;BME280;41837;55.700;37.984;2022-11-14T12:32:09;100896.09;;;0.64;60.81
55932;BME280;41837;55.700;37.984;2022-11-14T12:34:57;100906.38;;;0.61;61.64
55932;BME280;41837;55.700;37.984;2022-11-14T12:37:45;100912.44;;;0.65;61.96
55932;BME280;41837;55.700;37.984;2022-11-14T12:40:34;100897.94;;;0.70;60.91
55932;BME280;41837;55.700;37.984;2022-11-14T12:43:38;100894.22;;;0.54;61.74
55932;BME280;41837;55.700;37.984;2022-11-14T12:46:25;100908.88;;;0.58;61.69
55932;BME280;41837;55.700;37.984;2022-11-14T12:58:20;100901.72;;;0.40;62.56
55932;BME280;41837;55.700;37.984;2022-11-14T13:04:29;100905.50;;;0.12;63.76
55932;BME280;41837;55.700;37.984;2022-11-14T13:07:22;100897.81;;;0.13;63.94
55932;BME280;41837;55.700;37.984;2022-11-14T13:10:15;100898.84;;;0.23;63.98
55932;BME280;41837;55.700;37.984;2022-11-14T13:13:14;100894.25;;;0.05;65.25
55932;BME280;41837;55.700;37.984;2022-11-14T13:16:26;100899.00;;;-0.16;65.75
55932;BME280;41837;55.700;37.984;2022-11-14T13:19:32;100885.00;;;-0.31;66.16
55932;BME280;41837;55.700;37.984;2022-11-14T13:22:43;100895.63;;;-0.12;66.10
55932;BME280;41837;55.700;37.984;2022-11-14T13:25:28;100902.28;;;-0.24;65.59
55932;BME280;41837;55.700;37.984;2022-11-14T13:34:53;100905.44;;;-0.37;66.63
55932;BME280;41837;55.700;37.984;2022-11-14T13:38:43;100902.94;;;-0.34;67.30
55932;BME280;41837;55.700;37.984;2022-11-14T13:51:17;100897.03;;;-0.71;68.85
55932;BME280;41837;55.700;37.984;2022-11-14T13:54:18;100891.88;;;-0.72;69.04
55932;BME280;41837;55.700;37.984;2022-11-14T14:00:14;100908.00;;;-0.78;69.46
55932;BME280;41837;55.700;37.984;2022-11-14T14:03:44;100896.25;;;-0.67;68.92
55932;BME280;41837;55.700;37.984;2022-11-14T14:06:53;100901.03;;;-0.84;69.45
55932;BME280;41837;55.700;37.984;2022-11-14T14:10:14;100897.78;;;-0.75;69.80
55932;BME280;41837;55.700;37.984;2022-11-14T14:16:35;100902.34;;;-0.62;69.64
55932;BME280;41837;55.700;37.984;2022-11-14T14:25:46;100905.38;;;-0.40;68.84
55932;BME280;41837;55.700;37.984;2022-11-14T14:28:56;100904.59;;;-0.36;69.05
55932;BME280;41837;55.700;37.984;2022-11-14T14:31:44;100900.88;;;-0.50;68.77
55932;BME280;41837;55.700;37.984;2022-11-14T14:34:30;100899.25;;;-0.47;69.18
55932;BME280;41837;55.700;37.984;2022-11-14T14:37:19;100897.63;;;-0.42;68.51
55932;BME280;41837;55.700;37.984;2022-11-14T14:40:06;100905.69;;;-0.25;68.95
55932;BME280;41837;55.700;37.984;2022-11-14T14:42:57;100896.47;;;-0.58;69.41
55932;BME280;41837;55.700;37.984;2022-11-14T14:45:52;100888.63;;;-0.64;69.17
55932;BME280;41837;55.700;37.984;2022-11-14T14:48:39;100890.22;;;-0.69;70.47
55932;BME280;41837;55.700;37.984;2022-11-14T14:51:35;100890.41;;;-0.60;70.15
55932;BME280;41837;55.700;37.984;2022-11-14T14:54:29;100893.94;;;-0.56;69.96
55932;BME280;41837;55.700;37.984;2022-11-14T14:57:17;100896.75;;;-0.44;69.73
55932;BME280;41837;55.700;37.984;2022-11-14T15:00:15;100893.94;;;-0.56;69.66
55932;BME280;41837;55.700;37.984;2022-11-14T15:03:02;100892.34;;;-0.49;70.16
55932;BME280;41837;55.700;37.984;2022-11-14T15:05:46;100893.47;;;-0.36;70.02
55932;BME280;41837;55.700;37.984;2022-11-14T15:08:35;100900.38;;;-0.32;69.33
55932;BME280;41837;55.700;37.984;2022-11-14T15:11:21;100887.41;;;-0.40;69.41
55932;BME280;41837;55.700;37.984;2022-11-14T15:14:19;100883.22;;;-0.35;68.67
55932;BME280;41837;55.700;37.984;2022-11-14T15:17:06;100877.31;;;-0.29;68.79
55932;BME280;41837;55.700;37.984;2022-11-14T15:19:52;100886.31;;;0.42;65.87
55932;BME280;41837;55.700;37.984;2022-11-14T15:22:37;100898.81;;;0.22;65.62
55932;BME280;41837;55.700;37.984;2022-11-14T15:25:23;100891.22;;;0.28;64.71
55932;BME280;41837;55.700;37.984;2022-11-14T15:28:15;100894.03;;;0.42;65.48
55932;BME280;41837;55.700;37.984;2022-11-14T15:31:03;100897.16;;;0.25;64.80
55932;BME280;41837;55.700;37.984;2022-11-14T15:34:18;100875.63;;;0.18;64.55
55932;BME280;41837;55.700;37.984;2022-11-14T15:40:17;100887.03;;;0.33;63.36
55932;BME280;41837;55.700;37.984;2022-11-14T15:43:55;100872.13;;;0.67;62.84
55932;BME280;41837;55.700;37.984;2022-11-14T15:46:38;100875.84;;;0.31;64.08
55932;BME280;41837;55.700;37.984;2022-11-14T15:49:25;100886.84;;;0.24;63.87
55932;BME280;41837;55.700;37.984;2022-11-14T15:52:23;100888.84;;;0.40;62.38
55932;BME280;41837;55.700;37.984;2022-11-14T15:55:18;100872.59;;;0.41;62.97
55932;BME280;41837;55.700;37.984;2022-11-14T15:58:07;100875.44;;;0.58;62.49
55932;BME280;41837;55.700;37.984;2022-11-14T16:00:54;100878.97;;;0.65;61.76
55932;BME280;41837;55.700;37.984;2022-11-14T16:03:43;100873.13;;;0.75;61.34
55932;BME280;41837;55.700;37.984;2022-11-14T16:06:29;100880.03;;;0.79;60.84
55932;BME280;41837;55.700;37.984;2022-11-14T16:09:18;100853.69;;;0.41;60.94
55932;BME280;41837;55.700;37.984;2022-11-14T16:12:05;100872.97;;;0.66;60.89